sensor_id;sensor_type;location;lat;lon;timestamp;pressure;altitude;pressure_sealevel;temperature;humidity
48792;BME280;34587;48.816;9.420;2023-05-20T04:16:27;98861.63;;;10.14;100.00
48792;BME280;34587;48.816;9.420;2023-05-20T04:18:54;98862.34;;;10.26;100.00
48792;BME280;34587;48.816;9.420;2023-05-20T04:21:19;98867.41;;;10.33;100.00
48792;BME280;34587;48.816;9.420;2023-05-20T04:23:44;98864.88;;;10.28;100.00
48792;BME280;34587;48.816;9.420;2023-05-20T04:26:10;98866.59;;;10.29;100.00
48792;BME280;34587;48.816;9.420;2023-05-20T04:28:35;98868.16;;;10.39;100.00
48792;BME280;34587;48.816;9.420;2023-05-20T04:31:02;98854.28;;;10.43;100.00
48792;BME280;34587;48.816;9.420;2023-05-20T04:33:30;98859.28;;;10.55;99.37
48792;BME280;34587;48.816;9.420;2023-05-20T04:35:57;98847.97;;;10.58;98.94
48792;BME280;34587;48.816;9.420;2023-05-20T04:38:23;98845.47;;;10.53;99.42
48792;BME280;34587;48.816;9.420;2023-05-20T04:40:57;98838.53;;;10.55;99.95
48792;BME280;34587;48.816;9.420;2023-05-20T04:43:23;98838.59;;;10.52;99.77
48792;BME280;34587;48.816;9.420;2023-05-20T04:45:50;98842.81;;;10.60;98.90
48792;BME280;34587;48.816;9.420;2023-05-20T04:48:17;98840.81;;;10.74;99.34
48792;BME280;34587;48.816;9.420;2023-05-20T04:50:42;98848.31;;;10.89;98.20
48792;BME280;34587;48.816;9.420;2023-05-20T04:53:08;98842.84;;;11.04;97.48
48792;BME280;34587;48.816;9.420;2023-05-20T04:55:33;98840.72;;;11.25;96.97
48792;BME280;34587;48.816;9.420;2023-05-20T04:58:01;98846.94;;;11.59;94.46
48792;BME280;34587;48.816;9.420;2023-05-20T05:00:26;98838.72;;;11.79;92.73
48792;BME280;34587;48.816;9.420;2023-05-20T05:02:52;98834.00;;;11.98;90.97
48792;BME280;34587;48.816;9.420;2023-05-20T05:05:17;98837.00;;;12.19;90.13
48792;BME280;34587;48.816;9.420;2023-05-20T05:07:42;98834.78;;;12.39;87.58
48792;BME280;34587;48.816;9.420;2023-05-20T05:10:08;98828.88;;;12.67;87.00
48792;BME280;34587;48.816;9.420;2023-05-20T05:12:33;98823.81;;;12.95;85.58
48792;BME280;34587;48.816;9.420;2023-05-20T05:14:58;98822.41;;;13.16;84.22
48792;BME280;34587;48.816;9.420;2023-05-20T05:17:24;98825.84;;;13.47;81.19
48792;BME280;34587;48.816;9.420;2023-05-20T05:19:49;98817.69;;;13.30;81.22
48792;BME280;34587;48.816;9.420;2023-05-20T05:22:14;98809.69;;;13.36;81.39
48792;BME280;34587;48.816;9.420;2023-05-20T05:24:40;98817.69;;;13.30;81.75
48792;BME280;34587;48.816;9.420;2023-05-20T05:27:05;98817.19;;;13.16;81.98
48792;BME280;34587;48.816;9.420;2023-05-20T05:29:31;98817.59;;;13.00;82.25
48792;BME280;34587;48.816;9.420;2023-05-20T05:31:56;98809.59;;;13.39;82.52
48792;BME280;34587;48.816;9.420;2023-05-20T05:34:21;98807.28;;;13.59;81.01
48792;BME280;34587;48.816;9.420;2023-05-20T05:36:46;98810.22;;;13.47;80.99
48792;BME280;34587;48.816;9.420;2023-05-20T05:39:12;98806.69;;;13.78;80.62
48792;BME280;34587;48.816;9.420;2023-05-20T05:41:37;98803.44;;;13.99;79.35
48792;BME280;34587;48.816;9.420;2023-05-20T05:44:03;98793.03;;;14.26;78.71
48792;BME280;34587;48.816;9.420;2023-05-20T05:46:28;98793.31;;;14.17;78.99
48792;BME280;34587;48.816;9.420;2023-05-20T05:48:53;98794.47;;;14.36;78.48
48792;BME280;34587;48.816;9.420;2023-05-20T05:51:19;98790.03;;;14.38;78.41
48792;BME280;34587;48.816;9.420;2023-05-20T05:53:44;98789.75;;;14.47;76.48
48792;BME280;34587;48.816;9.420;2023-05-20T05:56:09;98782.56;;;14.54;76.72
48792;BME280;34587;48.816;9.420;2023-05-20T05:58:35;98785.16;;;14.55;76.79
48792;BME280;34587;48.816;9.420;2023-05-20T06:01:01;98790.47;;;14.77;76.31
48792;BME280;34587;48.816;9.420;2023-05-20T06:03:26;98794.41;;;14.89;75.47
48792;BME280;34587;48.816;9.420;2023-05-20T06:05:54;98785.56;;;14.93;74.98
48792;BME280;34587;48.816;9.420;2023-05-20T06:08:19;98791.91;;;14.86;76.21
48792;BME280;34587;48.816;9.420;2023-05-20T06:10:48;98787.59;;;14.85;75.36
48792;BME280;34587;48.816;9.420;2023-05-20T06:13:14;98785.47;;;14.96;75.71
48792;BME280;34587;48.816;9.420;2023-05-20T06:15:39;98787.88;;;15.26;75.66
48792;BME280;34587;48.816;9.420;2023-05-20T06:18:05;98776.16;;;15.83;73.78
48792;BME280;34587;48.816;9.420;2023-05-20T06:20:30;98776.19;;;16.03;72.17
48792;BME280;34587;48.816;9.420;2023-05-20T06:22:56;98776.94;;;15.85;71.65
48792;BME280;34587;48.816;9.420;2023-05-20T06:25:21;98763.50;;;15.94;71.74
48792;BME280;34587;48.816;9.420;2023-05-20T06:27:47;98764.72;;;16.07;70.75
48792;BME280;34587;48.816;9.420;2023-05-20T06:30:12;98767.06;;;16.13;71.29
48792;BME280;34587;48.816;9.420;2023-05-20T06:32:38;98766.59;;;16.26;69.92
48792;BME280;34587;48.816;9.420;2023-05-20T06:35:03;98760.97;;;16.35;69.53
48792;BME280;34587;48.816;9.420;2023-05-20T06:37:29;98760.59;;;16.44;69.00
48792;BME280;34587;48.816;9.420;2023-05-20T06:39:54;98756.94;;;16.89;67.49
48792;BME280;34587;48.816;9.420;2023-05-20T06:42:20;98750.31;;;17.01;66.86
48792;BME280;34587;48.816;9.420;2023-05-20T06:44:45;98754.97;;;16.94;67.62
48792;BME280;34587;48.816;9.420;2023-05-20T06:47:13;98752.13;;;17.57;65.55
48792;BME280;34587;48.816;9.420;2023-05-20T06:49:39;98754.88;;;17.54;64.80
48792;BME280;34587;48.816;9.420;2023-05-20T06:52:04;98757.81;;;17.08;66.07
48792;BME280;34587;48.816;9.420;2023-05-20T06:54:30;98756.84;;;17.30;65.59
48792;BME280;34587;48.816;9.420;2023-05-20T06:56:58;98751.72;;;18.02;63.63
48792;BME280;34587;48.816;9.420;2023-05-20T06:59:24;98746.81;;;18.31;61.33
48792;BME280;34587;48.816;9.420;2023-05-20T07:01:49;98747.56;;;18.15;62.58
48792;BME280;34587;48.816;9.420;2023-05-20T07:04:14;98740.09;;;19.75;57.79
48792;BME280;34587;48.816;9.420;2023-05-20T07:06:40;98733.09;;;20.06;54.91
48792;BME280;34587;48.816;9.420;2023-05-20T07:09:05;98735.88;;;20.18;54.11
48792;BME280;34587;48.816;9.420;2023-05-20T07:11:31;98740.47;;;19.36;56.60
48792;BME280;34587;48.816;9.420;2023-05-20T07:13:56;98735.16;;;19.85;55.32
48792;BME280;34587;48.816;9.420;2023-05-20T07:16:21;98729.66;;;21.37;50.89
48792;BME280;34587;48.816;9.420;2023-05-20T07:18:47;98717.69;;;23.91;45.19
48792;BME280;34587;48.816;9.420;2023-05-20T07:21:12;98718.09;;;24.32;43.55
48792;BME280;34587;48.816;9.420;2023-05-20T07:23:37;98717.16;;;23.12;45.23
48792;BME280;34587;48.816;9.420;2023-05-20T07:26:03;98721.22;;;22.52;47.41
48792;BME280;34587;48.816;9.420;2023-05-20T07:28:28;98714.09;;;24.62;43.20
48792;BME280;34587;48.816;9.420;2023-05-20T07:30:53;98709.00;;;24.48;41.98
48792;BME280;34587;48.816;9.420;2023-05-20T07:33:20;98704.13;;;25.33;40.29
48792;BME280;34587;48.816;9.420;2023-05-20T07:35:46;98708.63;;;26.19;39.06
48792;BME280;34587;48.816;9.420;2023-05-20T07:38:11;98714.59;;;25.57;39.83
48792;BME280;34587;48.816;9.420;2023-05-20T07:40:38;98718.00;;;24.10;41.61
48792;BME280;34587;48.816;9.420;2023-05-20T07:43:05;98716.09;;;23.88;42.93
48792;BME280;34587;48.816;9.420;2023-05-20T07:45:33;98714.47;;;23.25;43.39
48792;BME280;34587;48.816;9.420;2023-05-20T07:47:58;98714.69;;;21.78;47.29
48792;BME280;34587;48.816;9.420;2023-05-20T07:50:23;98711.97;;;20.07;50.98
48792;BME280;34587;48.816;9.420;2023-05-20T07:52:49;98713.38;;;19.35;52.81
48792;BME280;34587;48.816;9.420;2023-05-20T07:55:15;98701.81;;;21.33;50.29
48792;BME280;34587;48.816;9.420;2023-05-20T07:57:40;98686.19;;;25.25;42.32
48792;BME280;34587;48.816;9.420;2023-05-20T08:00:06;98682.31;;;23.92;42.39
48792;BME280;34587;48.816;9.420;2023-05-20T08:02:32;98693.50;;;21.39;48.06
48792;BME280;34587;48.816;9.420;2023-05-20T08:04:57;98687.47;;;21.37;48.68
48792;BME280;34587;48.816;9.420;2023-05-20T08:07:23;98690.50;;;21.30;49.42
48792;BME280;34587;48.816;9.420;2023-05-20T08:09:48;98693.25;;;21.56;48.76
48792;BME280;34587;48.816;9.420;2023-05-20T08:12:13;98703.50;;;20.76;50.25
48792;BME280;34587;48.816;9.420;2023-05-20T08:14:39;98696.72;;;20.28;51.24
48792;BME280;34587;48.816;9.420;2023-05-20T08:17:04;98700.06;;;20.46;51.61
48792;BME280;34587;48.816;9.420;2023-05-20T08:19:30;98697.09;;;20.22;52.62
48792;BME280;34587;48.816;9.420;2023-05-20T08:21:55;98698.66;;;20.24;52.59
48792;BME280;34587;48.816;9.420;2023-05-20T08:24:20;98698.69;;;19.47;54.29
48792;BME280;34587;48.816;9.420;2023-05-20T08:26:45;98701.41;;;19.93;53.66
48792;BME280;34587;48.816;9.420;2023-05-20T08:29:11;98697.31;;;20.03;53.27
48792;BME280;34587;48.816;9.420;2023-05-20T08:31:36;98695.03;;;19.02;55.25
48792;BME280;34587;48.816;9.420;2023-05-20T08:34:01;98696.16;;;19.61;54.92
48792;BME280;34587;48.816;9.420;2023-05-20T08:36:27;98702.59;;;19.87;54.21
48792;BME280;34587;48.816;9.420;2023-05-20T08:38:52;98703.28;;;19.59;54.08
48792;BME280;34587;48.816;9.420;2023-05-20T08:41:17;98696.31;;;19.90;53.48
48792;BME280;34587;48.816;9.420;2023-05-20T08:43:43;98701.53;;;20.36;52.24
48792;BME280;34587;48.816;9.420;2023-05-20T08:46:09;98698.50;;;20.27;52.18
48792;BME280;34587;48.816;9.420;2023-05-20T08:48:35;98693.91;;;20.61;51.51
48792;BME280;34587;48.816;9.420;2023-05-20T08:51:02;98695.56;;;21.19;50.31
48792;BME280;34587;48.816;9.420;2023-05-20T08:53:28;98684.06;;;21.49;49.40
48792;BME280;34587;48.816;9.420;2023-05-20T08:55:55;98681.50;;;22.79;46.73
48792;BME280;34587;48.816;9.420;2023-05-20T08:58:24;98677.25;;;23.89;44.24
48792;BME280;34587;48.816;9.420;2023-05-20T09:00:50;98671.81;;;24.49;42.66
48792;BME280;34587;48.816;9.420;2023-05-20T09:03:17;98671.94;;;25.49;40.49
48792;BME280;34587;48.816;9.420;2023-05-20T09:05:44;98665.72;;;30.10;33.04
48792;BME280;34587;48.816;9.420;2023-05-20T09:08:10;98674.31;;;28.19;34.16
48792;BME280;34587;48.816;9.420;2023-05-20T09:10:37;98677.66;;;24.06;41.01
48792;BME280;34587;48.816;9.420;2023-05-20T09:13:04;98674.94;;;24.19;41.82
48792;BME280;34587;48.816;9.420;2023-05-20T09:15:30;98681.78;;;24.10;42.45
48792;BME280;34587;48.816;9.420;2023-05-20T09:17:59;98679.41;;;22.59;45.20
48792;BME280;34587;48.816;9.420;2023-05-20T09:20:25;98669.69;;;23.34;42.97
48792;BME280;34587;48.816;9.420;2023-05-20T09:22:51;98676.13;;;22.81;44.46
48792;BME280;34587;48.816;9.420;2023-05-20T09:25:21;98665.06;;;26.43;38.93
48792;BME280;34587;48.816;9.420;2023-05-20T09:27:47;98653.22;;;27.58;35.11
48792;BME280;34587;48.816;9.420;2023-05-20T09:30:12;98658.16;;;27.22;36.50
48792;BME280;34587;48.816;9.420;2023-05-20T09:32:38;98653.84;;;26.18;38.31
48792;BME280;34587;48.816;9.420;2023-05-20T09:35:04;98662.53;;;27.23;36.77
48792;BME280;34587;48.816;9.420;2023-05-20T09:37:33;98656.56;;;26.49;37.75
48792;BME280;34587;48.816;9.420;2023-05-20T09:40:03;98651.25;;;26.07;38.58
48792;BME280;34587;48.816;9.420;2023-05-20T09:43:11;98655.44;;;24.20;40.89
48792;BME280;34587;48.816;9.420;2023-05-20T09:45:37;98654.13;;;25.17;39.94
48792;BME280;34587;48.816;9.420;2023-05-20T09:48:03;98652.09;;;25.75;38.28
48792;BME280;34587;48.816;9.420;2023-05-20T09:50:31;98663.50;;;24.99;39.02
48792;BME280;34587;48.816;9.420;2023-05-20T09:53:02;98649.66;;;26.25;37.54
48792;BME280;34587;48.816;9.420;2023-05-20T09:55:28;98649.88;;;28.14;34.73
48792;BME280;34587;48.816;9.420;2023-05-20T09:57:55;98650.97;;;29.52;32.45
48792;BME280;34587;48.816;9.420;2023-05-20T10:00:20;98650.88;;;26.84;35.14
48792;BME280;34587;48.816;9.420;2023-05-20T10:02:50;98644.78;;;27.03;35.21
48792;BME280;34587;48.816;9.420;2023-05-20T10:05:18;98637.06;;;26.59;35.51
48792;BME280;34587;48.816;9.420;2023-05-20T10:13:52;98635.59;;;26.46;36.66
48792;BME280;34587;48.816;9.420;2023-05-20T10:17:24;98622.41;;;28.04;34.22
48792;BME280;34587;48.816;9.420;2023-05-20T10:19:31;98627.97;;;28.86;32.39
48792;BME280;34587;48.816;9.420;2023-05-20T10:22:00;98624.84;;;25.62;37.12
48792;BME280;34587;48.816;9.420;2023-05-20T10:24:37;98614.22;;;26.15;36.81
48792;BME280;34587;48.816;9.420;2023-05-20T10:27:07;98618.69;;;24.84;38.77
48792;BME280;34587;48.816;9.420;2023-05-20T10:29:44;98612.72;;;24.14;40.83
48792;BME280;34587;48.816;9.420;2023-05-20T10:32:09;98620.63;;;23.67;41.06
48792;BME280;34587;48.816;9.420;2023-05-20T10:34:48;98609.69;;;24.07;41.01
48792;BME280;34587;48.816;9.420;2023-05-20T10:37:31;98605.88;;;25.34;38.49
48792;BME280;34587;48.816;9.420;2023-05-20T10:40:24;98593.97;;;25.18;38.66
48792;BME280;34587;48.816;9.420;2023-05-20T10:42:49;98603.41;;;24.77;38.85
48792;BME280;34587;48.816;9.420;2023-05-20T10:45:27;98599.38;;;25.38;37.66
48792;BME280;34587;48.816;9.420;2023-05-20T10:47:54;98593.88;;;25.08;38.88
48792;BME280;34587;48.816;9.420;2023-05-20T10:50:36;98584.31;;;26.95;35.63
48792;BME280;34587;48.816;9.420;2023-05-20T10:53:06;98585.28;;;30.13;31.15
48792;BME280;34587;48.816;9.420;2023-05-20T10:55:39;98588.97;;;31.14;29.99
48792;BME280;34587;48.816;9.420;2023-05-20T10:58:06;98579.34;;;30.87;29.26
48792;BME280;34587;48.816;9.420;2023-05-20T11:00:35;98576.84;;;30.60;29.85
48792;BME280;34587;48.816;9.420;2023-05-20T11:03:01;98581.66;;;26.55;34.41
48792;BME280;34587;48.816;9.420;2023-05-20T11:05:27;98584.16;;;25.41;37.33
48792;BME280;34587;48.816;9.420;2023-05-20T11:08:03;98580.53;;;23.96;40.23
48792;BME280;34587;48.816;9.420;2023-05-20T11:10:29;98568.63;;;26.31;36.34
48792;BME280;34587;48.816;9.420;2023-05-20T11:12:57;98567.25;;;29.43;31.63
48792;BME280;34587;48.816;9.420;2023-05-20T11:15:22;98565.03;;;27.22;33.58
48792;BME280;34587;48.816;9.420;2023-05-20T11:17:52;98564.03;;;28.67;32.69
48792;BME280;34587;48.816;9.420;2023-05-20T11:20:18;98563.06;;;28.68;31.59
48792;BME280;34587;48.816;9.420;2023-05-20T11:22:44;98555.31;;;26.00;35.99
48792;BME280;34587;48.816;9.420;2023-05-20T11:25:09;98548.31;;;25.67;36.23
48792;BME280;34587;48.816;9.420;2023-05-20T11:27:38;98546.50;;;26.00;36.55
48792;BME280;34587;48.816;9.420;2023-05-20T11:30:04;98539.31;;;27.23;33.87
48792;BME280;34587;48.816;9.420;2023-05-20T11:32:30;98541.78;;;26.03;36.59
48792;BME280;34587;48.816;9.420;2023-05-20T11:34:55;98549.25;;;26.19;35.83
48792;BME280;34587;48.816;9.420;2023-05-20T11:37:22;98538.44;;;27.22;34.57
48792;BME280;34587;48.816;9.420;2023-05-20T11:39:48;98536.56;;;26.53;34.79
48792;BME280;34587;48.816;9.420;2023-05-20T11:42:16;98538.72;;;27.97;33.05
48792;BME280;34587;48.816;9.420;2023-05-20T11:44:42;98522.41;;;28.19;33.97
48792;BME280;34587;48.816;9.420;2023-05-20T11:47:09;98525.16;;;28.27;32.79
48792;BME280;34587;48.816;9.420;2023-05-20T11:49:40;98521.78;;;27.78;32.81
48792;BME280;34587;48.816;9.420;2023-05-20T11:52:07;98523.00;;;29.05;30.90
48792;BME280;34587;48.816;9.420;2023-05-20T11:54:34;98522.53;;;31.18;28.21
48792;BME280;34587;48.816;9.420;2023-05-20T11:57:00;98512.81;;;29.98;29.60
48792;BME280;34587;48.816;9.420;2023-05-20T11:59:25;98522.09;;;28.22;31.81
48792;BME280;34587;48.816;9.420;2023-05-20T12:01:51;98509.25;;;26.91;33.77
48792;BME280;34587;48.816;9.420;2023-05-20T12:04:16;98510.69;;;26.25;35.20
48792;BME280;34587;48.816;9.420;2023-05-20T12:06:42;98507.56;;;26.40;35.61
48792;BME280;34587;48.816;9.420;2023-05-20T12:09:08;98501.91;;;26.55;35.42
48792;BME280;34587;48.816;9.420;2023-05-20T12:11:35;98510.47;;;26.37;35.27
48792;BME280;34587;48.816;9.420;2023-05-20T12:14:04;98504.91;;;26.40;35.14
48792;BME280;34587;48.816;9.420;2023-05-20T12:16:30;98508.19;;;26.54;35.70
48792;BME280;34587;48.816;9.420;2023-05-20T12:18:56;98507.69;;;26.39;36.30
48792;BME280;34587;48.816;9.420;2023-05-20T12:21:21;98505.84;;;26.39;35.96
48792;BME280;34587;48.816;9.420;2023-05-20T12:23:47;98493.91;;;26.24;36.50
48792;BME280;34587;48.816;9.420;2023-05-20T12:26:12;98493.56;;;26.69;35.83
48792;BME280;34587;48.816;9.420;2023-05-20T12:28:37;98493.59;;;26.88;35.19
48792;BME280;34587;48.816;9.420;2023-05-20T12:31:04;98506.75;;;25.88;37.26
48792;BME280;34587;48.816;9.420;2023-05-20T12:33:30;98498.94;;;24.79;38.22
48792;BME280;34587;48.816;9.420;2023-05-20T12:35:55;98498.22;;;24.88;38.64
48792;BME280;34587;48.816;9.420;2023-05-20T12:38:20;98506.31;;;23.97;40.40
48792;BME280;34587;48.816;9.420;2023-05-20T12:40:46;98501.41;;;24.04;39.19
48792;BME280;34587;48.816;9.420;2023-05-20T12:43:11;98498.75;;;23.57;41.17
48792;BME280;34587;48.816;9.420;2023-05-20T12:45:36;98503.06;;;24.05;39.81
48792;BME280;34587;48.816;9.420;2023-05-20T12:48:03;98491.78;;;24.36;39.40
48792;BME280;34587;48.816;9.420;2023-05-20T12:50:28;98487.69;;;24.98;39.31
48792;BME280;34587;48.816;9.420;2023-05-20T12:52:53;98485.25;;;25.18;36.90
48792;BME280;34587;48.816;9.420;2023-05-20T12:55:19;98483.88;;;25.34;37.26
48792;BME280;34587;48.816;9.420;2023-05-20T12:57:45;98491.84;;;25.55;37.10
48792;BME280;34587;48.816;9.420;2023-05-20T13:00:11;98489.88;;;25.57;37.44
48792;BME280;34587;48.816;9.420;2023-05-20T13:02:38;98482.09;;;25.24;38.35
48792;BME280;34587;48.816;9.420;2023-05-20T13:05:04;98483.72;;;25.15;37.98
48792;BME280;34587;48.816;9.420;2023-05-20T13:07:30;98470.28;;;25.91;36.68
48792;BME280;34587;48.816;9.420;2023-05-20T13:09:56;98476.22;;;26.04;35.95
48792;BME280;34587;48.816;9.420;2023-05-20T13:12:21;98471.69;;;25.95;35.92
48792;BME280;34587;48.816;9.420;2023-05-20T13:14:46;98476.22;;;25.62;37.47
48792;BME280;34587;48.816;9.420;2023-05-20T13:17:12;98471.25;;;25.48;37.26
48792;BME280;34587;48.816;9.420;2023-05-20T13:19:37;98478.94;;;24.86;38.48
48792;BME280;34587;48.816;9.420;2023-05-20T13:22:03;98489.16;;;24.48;38.22
48792;BME280;34587;48.816;9.420;2023-05-20T13:24:30;98472.66;;;24.44;38.06
48792;BME280;34587;48.816;9.420;2023-05-20T13:26:55;98459.44;;;24.87;38.60
48792;BME280;34587;48.816;9.420;2023-05-20T13:29:20;98463.94;;;25.19;36.39
48792;BME280;34587;48.816;9.420;2023-05-20T13:31:46;98461.81;;;25.34;37.44
48792;BME280;34587;48.816;9.420;2023-05-20T13:34:12;98453.94;;;26.16;36.58
48792;BME280;34587;48.816;9.420;2023-05-20T13:36:38;98450.13;;;25.78;36.97
48792;BME280;34587;48.816;9.420;2023-05-20T13:39:03;98450.00;;;24.95;38.13
48792;BME280;34587;48.816;9.420;2023-05-20T13:41:28;98449.84;;;24.64;38.55
48792;BME280;34587;48.816;9.420;2023-05-20T13:43:54;98453.59;;;24.50;39.08
48792;BME280;34587;48.816;9.420;2023-05-20T13:46:20;98450.84;;;23.96;39.91
48792;BME280;34587;48.816;9.420;2023-05-20T13:48:45;98455.19;;;24.53;38.90
48792;BME280;34587;48.816;9.420;2023-05-20T13:51:11;98445.47;;;24.85;37.99
48792;BME280;34587;48.816;9.420;2023-05-20T13:53:36;98444.69;;;24.95;37.12
48792;BME280;34587;48.816;9.420;2023-05-20T13:56:01;98449.63;;;24.33;37.91
48792;BME280;34587;48.816;9.420;2023-05-20T13:58:27;98446.00;;;24.68;38.12
48792;BME280;34587;48.816;9.420;2023-05-20T14:00:52;98438.50;;;24.73;38.43
48792;BME280;34587;48.816;9.420;2023-05-20T14:03:18;98440.84;;;24.33;39.08
48792;BME280;34587;48.816;9.420;2023-05-20T14:05:43;98434.50;;;24.47;38.73
48792;BME280;34587;48.816;9.420;2023-05-20T14:08:09;98430.66;;;24.83;39.26
48792;BME280;34587;48.816;9.420;2023-05-20T14:10:34;98421.53;;;24.65;38.60
48792;BME280;34587;48.816;9.420;2023-05-20T14:12:59;98421.59;;;23.97;39.98
48792;BME280;34587;48.816;9.420;2023-05-20T14:15:26;98422.47;;;23.75;40.45
48792;BME280;34587;48.816;9.420;2023-05-20T14:17:54;98418.13;;;24.08;39.75
48792;BME280;34587;48.816;9.420;2023-05-20T14:20:20;98416.41;;;24.52;38.97
48792;BME280;34587;48.816;9.420;2023-05-20T14:22:45;98405.81;;;24.84;38.49
48792;BME280;34587;48.816;9.420;2023-05-20T14:25:10;98397.56;;;24.98;37.54
48792;BME280;34587;48.816;9.420;2023-05-20T14:27:35;98402.34;;;25.36;37.34
48792;BME280;34587;48.816;9.420;2023-05-20T14:30:01;98405.13;;;24.71;38.28
48792;BME280;34587;48.816;9.420;2023-05-20T14:32:27;98402.44;;;25.14;37.77
48792;BME280;34587;48.816;9.420;2023-05-20T14:34:52;98403.44;;;25.34;38.33
48792;BME280;34587;48.816;9.420;2023-05-20T14:37:18;98395.97;;;24.75;38.43
48792;BME280;34587;48.816;9.420;2023-05-20T14:39:43;98403.44;;;24.38;38.54
48792;BME280;34587;48.816;9.420;2023-05-20T14:42:08;98387.53;;;24.26;38.31
48792;BME280;34587;48.816;9.420;2023-05-20T14:44:34;98381.00;;;24.85;37.80
48792;BME280;34587;48.816;9.420;2023-05-20T14:46:59;98381.84;;;24.85;38.94
48792;BME280;34587;48.816;9.420;2023-05-20T14:49:24;98382.94;;;25.15;37.96
48792;BME280;34587;48.816;9.420;2023-05-20T14:51:50;98394.44;;;24.61;38.01
48792;BME280;34587;48.816;9.420;2023-05-20T14:54:15;98383.66;;;24.42;38.40
48792;BME280;34587;48.816;9.420;2023-05-20T14:56:43;98388.50;;;24.25;39.57
48792;BME280;34587;48.816;9.420;2023-05-20T14:59:08;98374.81;;;23.98;39.36
48792;BME280;34587;48.816;9.420;2023-05-20T15:01:34;98377.69;;;24.06;39.38
48792;BME280;34587;48.816;9.420;2023-05-20T15:04:00;98376.25;;;24.02;39.62
48792;BME280;34587;48.816;9.420;2023-05-20T15:06:25;98376.75;;;23.84;40.09
48792;BME280;34587;48.816;9.420;2023-05-20T15:08:50;98378.94;;;23.79;39.96
48792;BME280;34587;48.816;9.420;2023-05-20T15:11:16;98379.63;;;23.81;40.00
48792;BME280;34587;48.816;9.420;2023-05-20T15:13:41;98386.59;;;23.82;39.14
48792;BME280;34587;48.816;9.420;2023-05-20T15:16:08;98390.00;;;23.84;40.28
48792;BME280;34587;48.816;9.420;2023-05-20T15:18:33;98392.63;;;23.96;39.92
48792;BME280;34587;48.816;9.420;2023-05-20T15:20:58;98389.22;;;24.16;39.65
48792;BME280;34587;48.816;9.420;2023-05-20T15:23:25;98389.50;;;24.13;40.29
48792;BME280;34587;48.816;9.420;2023-05-20T15:25:50;98388.28;;;24.06;40.14
48792;BME280;34587;48.816;9.420;2023-05-20T15:28:16;98387.41;;;24.17;39.13
48792;BME280;34587;48.816;9.420;2023-05-20T15:30:44;98390.78;;;24.30;40.28
48792;BME280;34587;48.816;9.420;2023-05-20T15:33:09;98382.47;;;24.34;39.64
48792;BME280;34587;48.816;9.420;2023-05-20T15:35:34;98377.94;;;24.03;40.16
48792;BME280;34587;48.816;9.420;2023-05-20T15:38:00;98370.19;;;24.22;39.75
48792;BME280;34587;48.816;9.420;2023-05-20T15:40:25;98378.72;;;24.48;39.59
48792;BME280;34587;48.816;9.420;2023-05-20T15:42:51;98383.59;;;24.64;39.20
48792;BME280;34587;48.816;9.420;2023-05-20T15:45:17;98384.63;;;24.52;39.98
48792;BME280;34587;48.816;9.420;2023-05-20T15:47:42;98388.25;;;24.40;39.91
48792;BME280;34587;48.816;9.420;2023-05-20T15:50:09;98397.88;;;24.52;39.80
48792;BME280;34587;48.816;9.420;2023-05-20T15:52:35;98392.75;;;24.05;40.30
48792;BME280;34587;48.816;9.420;2023-05-20T15:55:01;98390.34;;;24.14;39.94
48792;BME280;34587;48.816;9.420;2023-05-20T15:57:26;98389.69;;;24.32;39.44
48792;BME280;34587;48.816;9.420;2023-05-20T15:59:51;98384.13;;;24.35;39.53
48792;BME280;34587;48.816;9.420;2023-05-20T16:02:16;98381.50;;;24.47;39.49
48792;BME280;34587;48.816;9.420;2023-05-20T16:04:42;98382.19;;;24.60;39.93
48792;BME280;34587;48.816;9.420;2023-05-20T16:07:07;98376.63;;;24.63;40.11
48792;BME280;34587;48.816;9.420;2023-05-20T16:09:32;98366.28;;;24.60;40.26
48792;BME280;34587;48.816;9.420;2023-05-20T16:11:58;98372.16;;;24.64;40.22
48792;BME280;34587;48.816;9.420;2023-05-20T16:14:23;98364.59;;;24.59;39.76
48792;BME280;34587;48.816;9.420;2023-05-20T16:16:48;98369.81;;;24.81;39.20
48792;BME280;34587;48.816;9.420;2023-05-20T16:19:14;98367.41;;;24.78;38.27
48792;BME280;34587;48.816;9.420;2023-05-20T16:21:39;98366.97;;;24.73;38.25
48792;BME280;34587;48.816;9.420;2023-05-20T16:24:04;98367.88;;;24.51;38.56
48792;BME280;34587;48.816;9.420;2023-05-20T16:26:30;98360.78;;;24.52;38.40
48792;BME280;34587;48.816;9.420;2023-05-20T16:28:56;98362.66;;;24.61;38.72
48792;BME280;34587;48.816;9.420;2023-05-20T16:31:21;98361.66;;;24.73;39.45
48792;BME280;34587;48.816;9.420;2023-05-20T16:33:47;98359.47;;;24.78;39.28
48792;BME280;34587;48.816;9.420;2023-05-20T16:36:13;98358.63;;;24.46;39.94
48792;BME280;34587;48.816;9.420;2023-05-20T16:38:38;98356.13;;;24.76;39.44
48792;BME280;34587;48.816;9.420;2023-05-20T16:41:03;98354.03;;;24.80;38.84
48792;BME280;34587;48.816;9.420;2023-05-20T16:43:29;98359.97;;;24.72;38.65
48792;BME280;34587;48.816;9.420;2023-05-20T16:45:54;98358.22;;;24.61;37.59
48792;BME280;34587;48.816;9.420;2023-05-20T16:48:19;98355.19;;;24.66;38.18
48792;BME280;34587;48.816;9.420;2023-05-20T16:50:45;98362.34;;;24.75;37.73
48792;BME280;34587;48.816;9.420;2023-05-20T16:53:10;98374.38;;;24.91;37.88
48792;BME280;34587;48.816;9.420;2023-05-20T16:55:35;98363.16;;;24.66;38.55
48792;BME280;34587;48.816;9.420;2023-05-20T16:58:01;98369.47;;;25.07;37.59
48792;BME280;34587;48.816;9.420;2023-05-20T17:00:26;98363.94;;;25.10;37.92
48792;BME280;34587;48.816;9.420;2023-05-20T17:02:52;98364.38;;;25.04;37.80
48792;BME280;34587;48.816;9.420;2023-05-20T17:05:17;98363.66;;;25.13;37.83
48792;BME280;34587;48.816;9.420;2023-05-20T17:07:42;98363.03;;;24.88;38.14
48792;BME280;34587;48.816;9.420;2023-05-20T17:10:08;98362.94;;;24.90;38.23
48792;BME280;34587;48.816;9.420;2023-05-20T17:12:33;98366.03;;;24.63;38.30
48792;BME280;34587;48.816;9.420;2023-05-20T17:14:59;98362.19;;;24.67;38.34
48792;BME280;34587;48.816;9.420;2023-05-20T17:17:24;98363.16;;;24.66;38.93